createdAt,value
2019-01-08T00:02:04.942Z,1.80
2019-01-08T00:04:40.446Z,1.80
2019-01-08T00:07:15.071Z,1.80
2019-01-08T00:09:47.115Z,1.80
2019-01-08T00:12:19.902Z,1.80
2019-01-08T00:14:57.924Z,1.80
2019-01-08T00:17:32.574Z,1.90
2019-01-08T00:20:05.087Z,1.90
2019-01-08T00:22:39.843Z,1.90
2019-01-08T00:25:14.337Z,1.80
2019-01-08T00:27:48.286Z,1.80
2019-01-08T00:30:22.850Z,1.80
2019-01-08T00:32:57.442Z,1.80
2019-01-08T00:35:34.015Z,1.80
2019-01-08T00:38:06.048Z,1.80
2019-01-08T00:40:43.364Z,1.80
2019-01-08T00:43:22.244Z,1.70
2019-01-08T00:45:55.840Z,1.70
2019-01-08T00:48:30.335Z,1.80
2019-01-08T00:51:03.297Z,1.80
2019-01-08T00:53:35.807Z,1.70
2019-01-08T00:56:09.251Z,1.70
2019-01-08T00:58:51.272Z,1.80
2019-01-08T01:01:20.127Z,1.80
2019-01-08T01:03:53.216Z,1.80
2019-01-08T01:07:17.633Z,1.80
2019-01-08T01:09:56.831Z,1.80
2019-01-08T01:12:30.731Z,1.80
2019-01-08T01:15:03.520Z,1.80
2019-01-08T01:17:37.291Z,1.80
2019-01-08T01:20:09.987Z,1.80
2019-01-08T01:22:44.768Z,1.80
2019-01-08T01:25:19.040Z,1.80
2019-01-08T01:27:54.475Z,1.80
2019-01-08T01:30:28.787Z,1.80
2019-01-08T01:33:02.303Z,1.80
2019-01-08T01:35:36.896Z,1.80
2019-01-08T01:38:10.848Z,1.80
2019-01-08T01:40:44.407Z,1.80
2019-01-08T01:43:19.299Z,1.80
2019-01-08T01:45:55.716Z,1.80
2019-01-08T01:48:29.191Z,1.80
2019-01-08T01:51:03.079Z,1.80
2019-01-08T01:53:35.873Z,1.80
2019-01-08T01:56:10.509Z,1.80
2019-01-08T01:58:44.356Z,1.70
2019-01-08T02:01:19.437Z,1.80
2019-01-08T02:03:53.951Z,1.80
2019-01-08T02:06:29.416Z,1.70
2019-01-08T02:09:01.958Z,1.80
2019-01-08T02:11:36.964Z,1.70
2019-01-08T02:14:10.495Z,1.80
2019-01-08T02:16:42.886Z,1.80
2019-01-08T02:19:19.109Z,1.80
2019-01-08T02:21:49.667Z,1.80
2019-01-08T02:24:23.998Z,1.80
2019-01-08T02:26:56.061Z,1.90
2019-01-08T02:29:28.074Z,1.80
2019-01-08T02:32:02.624Z,1.90
2019-01-08T02:34:37.479Z,1.90
2019-01-08T02:37:11.404Z,1.90
2019-01-08T02:39:45.920Z,1.90
2019-01-08T02:42:19.841Z,1.90
2019-01-08T02:44:53.432Z,2.00
2019-01-08T02:47:25.635Z,2.00
2019-01-08T02:50:00.312Z,1.90
2019-01-08T02:52:34.307Z,2.00
2019-01-08T02:55:11.295Z,2.00
2019-01-08T02:57:48.364Z,2.00
2019-01-08T03:00:19.623Z,2.10
2019-01-08T03:02:52.675Z,2.00
2019-01-08T03:05:28.415Z,2.10
2019-01-08T03:08:01.983Z,2.10
2019-01-08T03:10:32.414Z,2.10
2019-01-08T03:13:04.024Z,2.10
2019-01-08T03:15:37.635Z,2.10
2019-01-08T03:18:09.604Z,2.10
2019-01-08T03:20:42.719Z,2.10
2019-01-08T03:23:17.089Z,2.10
2019-01-08T03:25:49.214Z,2.10
2019-01-08T03:28:23.111Z,2.10
2019-01-08T03:30:58.632Z,2.10
2019-01-08T03:33:33.219Z,2.10
2019-01-08T03:36:05.963Z,2.20
2019-01-08T03:38:40.591Z,2.10
2019-01-08T03:41:14.567Z,2.10
2019-01-08T03:43:49.054Z,2.00
2019-01-08T03:46:20.585Z,2.10
2019-01-08T03:48:54.175Z,2.00
2019-01-08T03:51:28.743Z,2.10
2019-01-08T03:54:02.786Z,2.00
2019-01-08T03:56:39.138Z,1.90
2019-01-08T03:59:12.643Z,1.90
2019-01-08T04:01:52.127Z,1.90
2019-01-08T04:04:24.611Z,1.90
2019-01-08T04:06:57.204Z,1.90
2019-01-08T04:09:30.279Z,1.90
2019-01-08T04:12:03.587Z,1.90
2019-01-08T04:14:38.559Z,1.90
2019-01-08T04:17:13.071Z,1.90
2019-01-08T04:19:46.079Z,1.90
2019-01-08T04:22:19.089Z,1.80
2019-01-08T04:24:52.576Z,1.80
2019-01-08T04:27:27.039Z,1.70
2019-01-08T04:29:58.687Z,1.70
2019-01-08T04:32:30.603Z,1.70
2019-01-08T04:35:06.880Z,1.70
2019-01-08T04:37:43.423Z,1.70
2019-01-08T04:40:19.499Z,1.80
2019-01-08T04:42:52.991Z,1.80
2019-01-08T04:45:25.224Z,1.80
2019-01-08T04:47:59.140Z,1.80
2019-01-08T04:50:30.135Z,1.80
2019-01-08T04:53:01.664Z,1.80
2019-01-08T04:55:32.513Z,1.80
2019-01-08T04:58:05.632Z,1.80
2019-01-08T05:00:39.103Z,1.80
2019-01-08T05:03:12.479Z,1.80
2019-01-08T05:05:45.953Z,1.80
2019-01-08T05:08:21.450Z,1.80
2019-01-08T05:10:55.167Z,1.80
2019-01-08T05:13:29.605Z,1.80
2019-01-08T05:16:04.162Z,1.80
2019-01-08T05:18:36.191Z,1.80
2019-01-08T05:21:09.935Z,1.70
2019-01-08T05:23:44.904Z,1.70
2019-01-08T05:26:16.039Z,1.70
2019-01-08T05:28:49.092Z,1.70
2019-01-08T05:31:23.103Z,1.70
2019-01-08T05:33:55.487Z,1.70
2019-01-08T05:36:28.611Z,1.70
2019-01-08T05:39:00.959Z,1.70
2019-01-08T05:41:33.923Z,1.80
2019-01-08T05:44:09.666Z,1.80
2019-01-08T05:46:47.074Z,1.80
2019-01-08T05:49:20.608Z,1.90
2019-01-08T05:51:53.609Z,1.90
2019-01-08T05:54:24.051Z,1.90
2019-01-08T05:56:54.771Z,1.90
2019-01-08T05:59:31.425Z,2.00
2019-01-08T06:02:04.929Z,2.00
2019-01-08T06:04:39.423Z,2.00
2019-01-08T06:07:13.931Z,2.00
2019-01-08T06:09:48.607Z,2.00
2019-01-08T06:12:21.570Z,2.00
2019-01-08T06:14:55.135Z,2.00
2019-01-08T06:17:31.526Z,2.00
2019-01-08T06:20:05.387Z,2.10
2019-01-08T06:22:39.806Z,2.10
2019-01-08T06:25:12.289Z,2.20
2019-01-08T06:27:46.692Z,2.20
2019-01-08T06:30:24.529Z,2.20
2019-01-08T06:32:53.631Z,2.30
2019-01-08T06:35:27.007Z,2.30
2019-01-08T06:38:00.172Z,2.30
2019-01-08T06:40:32.301Z,2.30
2019-01-08T06:43:06.219Z,2.40
2019-01-08T06:45:40.928Z,2.40
2019-01-08T06:48:13.163Z,2.40
2019-01-08T06:50:46.119Z,2.30
2019-01-08T06:53:19.175Z,2.30
2019-01-08T06:55:50.831Z,2.30
2019-01-08T06:58:21.543Z,2.30
2019-01-08T07:00:56.142Z,2.30
2019-01-08T07:03:29.155Z,2.40
2019-01-08T07:06:03.747Z,2.40
2019-01-08T07:08:37.891Z,2.40
2019-01-08T07:11:09.951Z,2.40
2019-01-08T07:13:44.935Z,2.40
2019-01-08T07:16:17.378Z,2.40
2019-01-08T07:18:51.780Z,2.40
2019-01-08T07:22:01.767Z,2.40
2019-01-08T07:27:29.455Z,2.40
2019-01-08T07:30:02.001Z,2.50
2019-01-08T07:32:36.784Z,2.50
2019-01-08T07:35:12.300Z,2.40
2019-01-08T07:40:41.438Z,2.50
2019-01-08T07:43:18.179Z,2.50
2019-01-08T07:45:53.222Z,2.40
2019-01-08T07:48:30.700Z,2.40
2019-01-08T07:51:05.423Z,2.40
2019-01-08T07:56:35.661Z,2.50
2019-01-08T07:59:16.012Z,2.40
2019-01-08T08:01:52.587Z,2.40
2019-01-08T08:04:30.892Z,2.50
2019-01-08T08:07:08.108Z,2.50
2019-01-08T08:12:40.199Z,2.50
2019-01-08T08:15:09.844Z,2.50
2019-01-08T08:17:46.858Z,2.50
2019-01-08T08:20:20.012Z,2.40
2019-01-08T08:22:59.524Z,2.50
2019-01-08T08:25:35.584Z,2.40
2019-01-08T08:34:05.668Z,2.40
2019-01-08T08:36:39.315Z,2.40
2019-01-08T08:39:18.116Z,2.40
2019-01-08T08:41:56.099Z,2.40
2019-01-08T08:44:33.659Z,2.40
2019-01-08T08:47:09.759Z,2.40
2019-01-08T08:49:47.176Z,2.40
2019-01-08T08:52:57.178Z,2.40
2019-01-08T08:55:26.699Z,2.40
2019-01-08T08:58:00.959Z,2.40
2019-01-08T09:00:42.943Z,2.40
2019-01-08T09:03:17.605Z,2.50
2019-01-08T09:05:53.633Z,2.40
2019-01-08T09:08:29.285Z,2.50
2019-01-08T09:16:53.700Z,2.50
2019-01-08T09:19:31.243Z,2.50
2019-01-08T09:25:07.209Z,2.50
2019-01-08T09:27:42.950Z,2.50
2019-01-08T09:30:51.559Z,2.50
2019-01-08T09:33:21.367Z,2.50
2019-01-08T09:36:31.462Z,2.50
2019-01-08T09:39:06.907Z,2.50
2019-01-08T09:41:37.487Z,2.60
2019-01-08T09:44:12.591Z,2.60
2019-01-08T09:46:47.531Z,2.60
2019-01-08T09:49:18.059Z,2.70
2019-01-08T09:51:52.724Z,2.70
2019-01-08T09:54:29.392Z,2.70
2019-01-08T09:57:41.355Z,2.80
2019-01-08T10:00:10.875Z,2.70
2019-01-08T10:08:30.644Z,2.80
2019-01-08T10:11:07.452Z,2.80
2019-01-08T10:16:36.941Z,2.90
2019-01-08T10:19:46.861Z,2.80
2019-01-08T10:22:23.154Z,2.70
2019-01-08T10:25:03.428Z,2.80
2019-01-08T10:33:31.743Z,2.60
2019-01-08T10:36:07.586Z,2.60
2019-01-08T10:38:43.884Z,2.70
2019-01-08T10:41:18.496Z,2.60
2019-01-08T10:43:49.917Z,2.60
2019-01-08T10:46:22.245Z,2.70
2019-01-08T10:48:54.845Z,2.70
2019-01-08T10:51:27.577Z,2.50
2019-01-08T10:54:03.688Z,2.50
2019-01-08T10:56:37.260Z,2.50
2019-01-08T10:59:10.810Z,2.50
2019-01-08T11:01:42.472Z,2.50
2019-01-08T11:04:13.577Z,2.40
2019-01-08T11:06:49.808Z,2.30
2019-01-08T11:10:00.805Z,2.40
2019-01-08T11:12:40.328Z,2.40
2019-01-08T11:15:15.818Z,2.40
2019-01-08T11:17:50.437Z,2.40
2019-01-08T11:20:28.015Z,2.40
2019-01-08T11:23:05.491Z,2.30
2019-01-08T11:25:40.169Z,2.20
2019-01-08T11:28:14.850Z,2.20
2019-01-08T11:33:42.891Z,2.30
2019-01-08T11:36:21.439Z,2.30
2019-01-08T11:38:56.580Z,2.30
2019-01-08T11:41:31.596Z,2.30
2019-01-08T11:44:13.535Z,2.30
2019-01-08T11:46:50.848Z,2.30
2019-01-08T11:49:24.527Z,2.30
2019-01-08T11:52:01.793Z,2.20
2019-01-08T11:54:41.137Z,2.20
2019-01-08T11:57:14.703Z,2.30
2019-01-08T11:59:48.370Z,2.20
2019-01-08T12:02:18.336Z,2.30
2019-01-08T12:04:48.555Z,2.20
2019-01-08T12:07:31.125Z,2.30
2019-01-08T12:10:03.607Z,2.20
2019-01-08T12:15:42.602Z,2.30
2019-01-08T12:18:19.807Z,2.30
2019-01-08T12:20:54.765Z,2.30
2019-01-08T12:23:26.916Z,2.30
2019-01-08T12:26:03.554Z,2.30
2019-01-08T12:28:40.915Z,2.30
2019-01-08T12:31:49.302Z,2.30
2019-01-08T12:37:42.085Z,2.40
2019-01-08T12:40:16.323Z,2.40
2019-01-08T12:42:47.165Z,2.40
2019-01-08T12:45:23.743Z,2.40
2019-01-08T12:47:58.765Z,2.40
2019-01-08T12:50:37.512Z,2.40
2019-01-08T12:53:14.787Z,2.30
2019-01-08T12:55:46.892Z,2.30
2019-01-08T12:58:18.771Z,2.30
2019-01-08T13:00:52.685Z,2.20
2019-01-08T13:03:29.248Z,2.20
2019-01-08T13:06:40.391Z,2.20
2019-01-08T13:09:50.839Z,2.30
2019-01-08T13:12:20.872Z,2.30
2019-01-08T13:14:54.675Z,2.40
2019-01-08T13:17:29.155Z,2.40
2019-01-08T13:20:05.505Z,2.30
2019-01-08T13:22:47.171Z,2.30
2019-01-08T13:25:19.858Z,2.20
2019-01-08T13:27:50.937Z,2.20
2019-01-08T13:30:28.321Z,2.20
2019-01-08T13:33:07.535Z,2.10
2019-01-08T13:35:44.003Z,2.10
2019-01-08T13:38:15.624Z,2.10
2019-01-08T13:40:56.748Z,2.10
2019-01-08T13:43:31.040Z,2.00
2019-01-08T13:46:05.687Z,2.00
2019-01-08T13:48:44.961Z,2.00
2019-01-08T13:51:21.300Z,1.90
2019-01-08T13:53:54.401Z,1.90
2019-01-08T13:56:30.171Z,1.90
2019-01-08T13:59:01.831Z,1.90
2019-01-08T14:01:34.995Z,1.80
2019-01-08T14:04:13.152Z,1.90
2019-01-08T14:06:48.744Z,1.90
2019-01-08T14:12:19.494Z,1.70
2019-01-08T14:14:54.989Z,1.70
2019-01-08T14:17:32.418Z,1.60
2019-01-08T14:20:05.628Z,1.60
2019-01-08T14:22:42.787Z,1.60
2019-01-08T14:25:14.955Z,1.60
2019-01-08T14:27:46.624Z,1.50
2019-01-08T14:30:19.155Z,1.50
2019-01-08T14:32:53.732Z,1.60
2019-01-08T14:35:29.791Z,1.60
2019-01-08T14:38:03.027Z,1.60
2019-01-08T14:40:36.645Z,1.50
2019-01-08T14:43:14.365Z,1.60
2019-01-08T14:45:44.424Z,1.60
2019-01-08T14:48:57.357Z,1.60
2019-01-08T14:51:31.585Z,1.50
2019-01-08T14:54:06.196Z,1.50
2019-01-08T14:56:40.704Z,1.50
2019-01-08T14:59:18.083Z,1.50
2019-01-08T15:01:52.044Z,1.40
2019-01-08T15:04:28.039Z,1.30
2019-01-08T15:07:00.647Z,1.30
2019-01-08T15:09:31.411Z,1.30
2019-01-08T15:12:02.422Z,1.30
2019-01-08T15:17:35.646Z,1.30
2019-01-08T15:26:17.698Z,1.30
2019-01-08T15:28:52.230Z,1.30
2019-01-08T15:31:26.391Z,1.30
2019-01-08T15:33:59.569Z,1.30
2019-01-08T15:42:32.763Z,1.30
2019-01-08T15:45:08.613Z,1.30
2019-01-08T15:47:41.751Z,1.30
2019-01-08T15:50:18.881Z,1.30
2019-01-08T15:52:55.215Z,1.30
2019-01-08T15:55:26.359Z,1.20
2019-01-08T15:57:56.537Z,1.20
2019-01-08T16:00:29.491Z,1.20
2019-01-08T16:03:39.044Z,1.20
2019-01-08T16:06:16.754Z,1.10
2019-01-08T16:08:53.392Z,1.20
2019-01-08T16:11:29.808Z,1.20
2019-01-08T16:14:11.636Z,1.20
2019-01-08T16:17:20.173Z,1.20
2019-01-08T16:19:50.349Z,1.20
2019-01-08T16:22:24.391Z,1.20
2019-01-08T16:25:35.395Z,1.20
2019-01-08T16:28:07.595Z,1.20
2019-01-08T16:30:41.296Z,1.20
2019-01-08T16:33:17.375Z,1.20
2019-01-08T16:35:54.021Z,1.20
2019-01-08T16:38:28.575Z,1.20
2019-01-08T16:41:01.184Z,1.20
2019-01-08T16:43:35.304Z,1.20
2019-01-08T16:46:08.516Z,1.30
2019-01-08T16:49:21.411Z,1.30
2019-01-08T16:51:55.808Z,1.20
2019-01-08T16:54:27.343Z,1.20
2019-01-08T16:56:59.651Z,1.20
2019-01-08T16:59:33.759Z,1.30
2019-01-08T17:02:07.071Z,1.30
2019-01-08T17:04:42.116Z,1.30
2019-01-08T17:07:19.295Z,1.30
2019-01-08T17:09:56.223Z,1.20
2019-01-08T17:12:33.968Z,1.20
2019-01-08T17:15:04.903Z,1.20
2019-01-08T17:17:40.323Z,1.20
2019-01-08T17:20:13.881Z,1.20
2019-01-08T17:25:40.928Z,1.20
2019-01-08T17:28:51.904Z,1.20
2019-01-08T17:34:24.133Z,1.10
2019-01-08T17:36:56.843Z,1.10
2019-01-08T17:39:34.216Z,1.10
2019-01-08T17:42:07.303Z,1.10
2019-01-08T17:44:43.547Z,1.10
2019-01-08T17:47:18.023Z,1.10
2019-01-08T17:49:52.127Z,1.20
2019-01-08T17:53:00.529Z,1.20
2019-01-08T17:59:08.811Z,1.10
2019-01-08T18:01:47.158Z,1.10
2019-01-08T18:04:20.065Z,1.10
2019-01-08T18:07:00.988Z,1.10
2019-01-08T18:09:34.711Z,1.10
2019-01-08T18:12:43.169Z,1.10
2019-01-08T18:15:13.140Z,1.10
2019-01-08T18:17:48.577Z,1.00
2019-01-08T18:20:21.697Z,1.00
2019-01-08T18:22:56.223Z,1.10
2019-01-08T18:26:07.204Z,1.10
2019-01-08T18:28:41.920Z,1.00
2019-01-08T18:31:54.328Z,1.00
2019-01-08T18:34:29.357Z,1.00
2019-01-08T18:37:04.014Z,1.00
2019-01-08T18:39:38.668Z,1.00
2019-01-08T18:42:14.719Z,1.00
2019-01-08T18:44:50.876Z,1.00
2019-01-08T18:47:23.048Z,1.00
2019-01-08T18:49:57.919Z,1.00
2019-01-08T18:52:32.536Z,1.00
2019-01-08T18:55:08.353Z,1.00
2019-01-08T18:57:40.035Z,1.10
2019-01-08T19:00:12.513Z,1.10
2019-01-08T19:03:21.959Z,1.10
2019-01-08T19:06:00.369Z,1.10
2019-01-08T19:09:08.038Z,1.10
2019-01-08T19:11:42.563Z,1.10
2019-01-08T19:14:16.249Z,1.10
2019-01-08T19:16:53.927Z,1.10
2019-01-08T19:19:28.139Z,1.10
2019-01-08T19:22:04.743Z,1.10
2019-01-08T19:25:17.635Z,1.10
2019-01-08T19:27:55.555Z,1.10
2019-01-08T19:30:30.250Z,1.00
2019-01-08T19:33:00.432Z,1.10
2019-01-08T19:35:31.814Z,1.10
2019-01-08T19:38:02.378Z,1.10
2019-01-08T19:40:32.100Z,1.10
2019-01-08T19:45:55.072Z,1.10
2019-01-08T19:48:32.483Z,1.10
2019-01-08T19:51:07.575Z,1.00
2019-01-08T19:53:39.406Z,1.10
2019-01-08T19:56:09.119Z,1.00
2019-01-08T19:58:44.995Z,1.10
2019-01-08T20:01:18.511Z,1.10
2019-01-08T20:03:51.651Z,1.10
2019-01-08T20:06:28.195Z,1.10
2019-01-08T20:09:01.281Z,1.10
2019-01-08T20:11:35.873Z,1.10
2019-01-08T20:14:09.035Z,1.10
2019-01-08T20:16:41.060Z,1.00
2019-01-08T20:19:13.795Z,1.00
2019-01-08T20:21:49.251Z,1.00
2019-01-08T20:25:02.143Z,1.00
2019-01-08T20:27:35.719Z,1.10
2019-01-08T20:30:09.408Z,1.00
2019-01-08T20:32:43.487Z,1.00
2019-01-08T20:35:53.539Z,1.00
2019-01-08T20:38:27.583Z,1.00
2019-01-08T20:40:59.848Z,1.00
2019-01-08T20:43:33.797Z,1.00
2019-01-08T20:46:08.579Z,1.00
2019-01-08T20:48:43.550Z,0.90
2019-01-08T20:51:19.679Z,1.00
2019-01-08T20:53:53.218Z,1.00
2019-01-08T20:56:26.119Z,1.00
2019-01-08T20:58:57.343Z,1.00
2019-01-08T21:01:29.779Z,1.00
2019-01-08T21:04:05.749Z,1.00
2019-01-08T21:06:37.801Z,1.00
2019-01-08T21:09:13.284Z,1.00
2019-01-08T21:11:46.924Z,1.00
2019-01-08T21:14:21.032Z,1.00
2019-01-08T21:16:52.751Z,1.00
2019-01-08T21:20:14.561Z,1.00
2019-01-08T21:22:45.935Z,1.10
2019-01-08T21:25:18.185Z,1.10
2019-01-08T21:27:48.735Z,1.10
2019-01-08T21:30:18.725Z,1.10
2019-01-08T21:32:53.247Z,1.10
2019-01-08T21:35:29.535Z,1.10
2019-01-08T21:38:05.982Z,1.10
2019-01-08T21:41:15.042Z,1.10
2019-01-08T21:43:49.994Z,1.10
2019-01-08T21:46:23.535Z,1.10
2019-01-08T21:48:57.167Z,1.10
2019-01-08T21:51:29.470Z,1.10
2019-01-08T21:54:03.438Z,1.10
2019-01-08T21:56:37.950Z,1.10
2019-01-08T21:59:10.542Z,1.10
2019-01-08T22:01:41.982Z,1.10
2019-01-08T22:04:15.103Z,1.10
2019-01-08T22:06:49.631Z,1.10
2019-01-08T22:09:24.063Z,1.10
2019-01-08T22:12:01.443Z,1.10
2019-01-08T22:14:36.941Z,1.10
2019-01-08T22:17:08.372Z,1.10
2019-01-08T22:19:38.248Z,1.10
2019-01-08T22:22:11.839Z,1.20
2019-01-08T22:24:45.378Z,1.20
2019-01-08T22:27:15.254Z,1.20
2019-01-08T22:29:47.329Z,1.20
2019-01-08T22:32:21.059Z,1.20
2019-01-08T22:34:52.395Z,1.20
2019-01-08T22:37:25.855Z,1.20
2019-01-08T22:39:58.752Z,1.20
2019-01-08T22:42:33.956Z,1.20
2019-01-08T22:45:08.858Z,1.10
2019-01-08T22:47:41.029Z,1.10
2019-01-08T22:50:14.344Z,1.10
2019-01-08T22:52:47.971Z,1.10
2019-01-08T22:55:21.443Z,1.10
2019-01-08T22:57:56.199Z,1.10
2019-01-08T23:00:45.157Z,1.20
2019-01-08T23:03:19.143Z,1.20
2019-01-08T23:05:51.646Z,1.10
2019-01-08T23:08:21.390Z,1.10
2019-01-08T23:10:51.807Z,1.10
2019-01-08T23:13:25.282Z,1.10
2019-01-08T23:15:58.276Z,1.10
2019-01-08T23:18:33.055Z,1.10
2019-01-08T23:21:07.073Z,1.10
2019-01-08T23:23:38.599Z,1.10
2019-01-08T23:26:08.295Z,1.10
2019-01-08T23:28:41.065Z,1.10
2019-01-08T23:31:15.614Z,1.10
2019-01-08T23:33:47.651Z,1.10
2019-01-08T23:36:23.204Z,1.10
2019-01-08T23:38:57.194Z,1.10
2019-01-08T23:41:29.762Z,1.10
2019-01-08T23:44:03.917Z,1.10
2019-01-08T23:46:35.002Z,1.10
2019-01-08T23:49:08.322Z,1.10
2019-01-08T23:51:38.693Z,1.10
2019-01-08T23:54:10.360Z,1.00
2019-01-08T23:56:40.538Z,1.00
2019-01-08T23:59:10.253Z,1.00
